createdAt,value
2022-08-10T00:01:22.363Z,102864.78
2022-08-10T00:03:54.359Z,102865.66
2022-08-10T00:06:26.425Z,102868.31
2022-08-10T00:08:59.914Z,102871.84
2022-08-10T00:11:31.934Z,102873.63
2022-08-10T00:14:04.032Z,102866.59
2022-08-10T00:16:36.030Z,102871.00
2022-08-10T00:19:08.068Z,102871.00
2022-08-10T00:21:42.341Z,102869.28
2022-08-10T00:24:15.140Z,102868.47
2022-08-10T00:27:52.115Z,102872.00
2022-08-10T00:29:39.014Z,102869.28
2022-08-10T00:32:10.988Z,102863.03
2022-08-10T00:34:43.156Z,102870.09
2022-08-10T00:37:17.389Z,102862.13
2022-08-10T00:39:49.384Z,102863.06
2022-08-10T00:42:21.391Z,102864.84
2022-08-10T00:44:53.793Z,102862.19
2022-08-10T00:47:36.765Z,102863.13
2022-08-10T00:50:10.367Z,102865.78
2022-08-10T00:52:42.338Z,102861.38
2022-08-10T00:55:14.835Z,102864.06
2022-08-10T00:57:55.247Z,102870.25
2022-08-10T01:00:28.208Z,102863.28
2022-08-10T01:03:00.363Z,102861.53
2022-08-10T01:05:33.631Z,102862.41
2022-08-10T01:08:32.377Z,102862.47
2022-08-10T01:12:38.384Z,102857.16
2022-08-10T01:14:36.385Z,102858.03
2022-08-10T01:17:23.403Z,102858.06
2022-08-10T01:20:34.895Z,102858.09
2022-08-10T01:23:21.772Z,102861.66
2022-08-10T01:26:43.247Z,102857.28
2022-08-10T01:29:42.656Z,102859.06
2022-08-10T01:32:22.395Z,102853.78
2022-08-10T01:35:10.545Z,102854.63
2022-08-10T01:38:16.790Z,102852.88
2022-08-10T01:41:03.583Z,102847.56
2022-08-10T01:43:41.876Z,102845.81
2022-08-10T01:46:15.792Z,102852.06
2022-08-10T01:48:55.195Z,102845.94
2022-08-10T01:51:39.365Z,102845.09
2022-08-10T01:54:20.058Z,102841.59
2022-08-10T01:56:56.750Z,102846.03
2022-08-10T01:59:34.766Z,102842.50
2022-08-10T02:02:10.743Z,102841.66
2022-08-10T02:04:48.078Z,102846.94
2022-08-10T02:07:25.585Z,102839.00
2022-08-10T02:10:04.529Z,102848.66
2022-08-10T02:12:38.216Z,102845.13
2022-08-10T02:15:22.153Z,102842.50
2022-08-10T02:18:02.077Z,102838.06
2022-08-10T02:20:45.981Z,102846.88
2022-08-10T02:23:32.141Z,102843.34
2022-08-10T02:26:07.189Z,102846.09
2022-08-10T02:28:41.474Z,102838.19
2022-08-10T02:31:23.012Z,102842.63
2022-08-10T02:33:59.535Z,102848.81
2022-08-10T02:36:34.541Z,102847.97
2022-08-10T02:39:09.198Z,102851.47
2022-08-10T02:45:14.851Z,102856.81
2022-08-10T02:45:29.204Z,102855.06
2022-08-10T02:48:12.674Z,102844.53
2022-08-10T02:50:55.834Z,102846.25
2022-08-10T02:53:54.934Z,102852.44
2022-08-10T02:56:38.259Z,102845.38
2022-08-10T02:59:11.251Z,102845.38
2022-08-10T03:01:49.056Z,102840.09
2022-08-10T03:04:55.345Z,102844.47
2022-08-10T03:07:44.524Z,102840.97
2022-08-10T03:10:21.984Z,102846.25
2022-08-10T03:12:59.716Z,102847.16
2022-08-10T03:15:34.978Z,102843.63
2022-08-10T03:18:08.526Z,102846.28
2022-08-10T03:20:43.126Z,102848.03
2022-08-10T03:23:19.573Z,102846.28
2022-08-10T03:25:56.765Z,102846.28
2022-08-10T03:28:32.759Z,102844.50
2022-08-10T03:31:04.791Z,102847.16
2022-08-10T03:33:41.679Z,102845.41
2022-08-10T03:36:40.397Z,102834.81
2022-08-10T03:39:05.826Z,102839.22
2022-08-10T03:41:53.568Z,102834.81
2022-08-10T03:44:33.742Z,102835.72
2022-08-10T03:47:16.506Z,102841.00
2022-08-10T03:49:49.752Z,102828.66
2022-08-10T03:52:22.077Z,102837.47
2022-08-10T03:54:54.506Z,102832.19
2022-08-10T03:57:30.081Z,102837.47
2022-08-10T04:00:02.172Z,102830.41
2022-08-10T04:02:44.653Z,102840.97
2022-08-10T04:05:20.117Z,102838.34
2022-08-10T04:07:52.128Z,102843.63
2022-08-10T04:10:24.096Z,102845.38
2022-08-10T04:12:56.392Z,102843.63
2022-08-10T04:15:30.998Z,102841.88
2022-08-10T04:18:06.274Z,102846.28
2022-08-10T04:20:53.039Z,102844.50
2022-08-10T04:23:29.585Z,102850.69
2022-08-10T04:26:01.636Z,102855.94
2022-08-10T04:28:33.851Z,102851.56
2022-08-10T04:31:08.632Z,102848.91
2022-08-10T04:33:46.081Z,102850.66
2022-08-10T04:36:21.206Z,102850.69
2022-08-10T04:38:54.260Z,102853.31
2022-08-10T04:41:27.183Z,102850.69
2022-08-10T04:43:59.377Z,102855.06
2022-08-10T04:46:42.743Z,102857.72
2022-08-10T04:49:54.217Z,102863.00
2022-08-10T04:52:15.380Z,102867.41
2022-08-10T04:54:47.384Z,102873.56
2022-08-10T04:57:19.354Z,102873.56
2022-08-10T04:59:51.291Z,102876.22
2022-08-10T05:02:30.358Z,102877.09
2022-08-10T05:05:04.662Z,102872.69
2022-08-10T05:07:53.896Z,102870.91
2022-08-10T05:10:28.794Z,102864.75
2022-08-10T05:13:00.727Z,102868.28
2022-08-10T05:15:32.720Z,102874.47
2022-08-10T05:18:09.813Z,102869.19
2022-08-10T05:20:47.193Z,102863.91
2022-08-10T05:23:21.795Z,102870.94
2022-08-10T05:25:53.763Z,102868.28
2022-08-10T05:28:27.687Z,102863.84
2022-08-10T05:31:02.789Z,102866.47
2022-08-10T05:33:34.754Z,102862.94
2022-08-10T05:36:07.413Z,102868.22
2022-08-10T05:38:39.969Z,102868.19
2022-08-10T05:41:12.146Z,102866.41
2022-08-10T05:43:44.848Z,102861.13
2022-08-10T05:46:21.103Z,102869.06
2022-08-10T05:48:58.880Z,102866.38
2022-08-10T05:51:32.117Z,102861.94
2022-08-10T05:54:09.112Z,102868.97
2022-08-10T05:56:54.908Z,102876.88
2022-08-10T06:00:35.542Z,102873.31
2022-08-10T06:02:35.768Z,102876.78
2022-08-10T06:05:26.519Z,102873.22
2022-08-10T06:08:05.026Z,102870.53
2022-08-10T06:10:54.906Z,102873.16
2022-08-10T06:14:13.388Z,102877.53
2022-08-10T06:16:46.057Z,102872.19
2022-08-10T06:19:19.146Z,102879.22
2022-08-10T06:22:01.155Z,102877.44
2022-08-10T06:25:04.682Z,102880.91
2022-08-10T06:27:34.754Z,102877.28
2022-08-10T06:30:20.103Z,102872.81
2022-08-10T06:32:56.709Z,102874.50
2022-08-10T06:35:32.557Z,102878.94
2022-08-10T06:38:06.295Z,102882.44
2022-08-10T06:40:47.374Z,102885.06
2022-08-10T06:43:21.504Z,102882.34
2022-08-10T06:46:07.488Z,102883.16
2022-08-10T06:48:51.792Z,102875.13
2022-08-10T06:51:30.090Z,102878.53
2022-08-10T06:54:06.664Z,102870.53
2022-08-10T06:57:01.695Z,102883.72
2022-08-10T06:59:46.305Z,102887.22
2022-08-10T07:02:30.168Z,102883.56
2022-08-10T07:05:06.641Z,102872.00
2022-08-10T07:07:41.216Z,102874.53
2022-08-10T07:10:17.940Z,102870.88
2022-08-10T07:12:54.960Z,102870.78
2022-08-10T07:15:59.144Z,102868.88
2022-08-10T07:18:20.920Z,102873.13
2022-08-10T07:20:53.798Z,102874.75
2022-08-10T07:23:58.843Z,102869.34
2022-08-10T07:26:20.629Z,102866.50
2022-08-10T07:28:53.411Z,102871.59
2022-08-10T07:31:54.338Z,102877.53
2022-08-10T07:34:29.188Z,102879.97
2022-08-10T07:37:06.511Z,102878.88
2022-08-10T07:40:02.103Z,102875.97
2022-08-10T07:42:42.093Z,102881.84
2022-08-10T07:45:17.410Z,102875.41
2022-08-10T07:48:03.710Z,102865.25
2022-08-10T07:50:41.327Z,102877.19
2022-08-10T07:53:24.848Z,102879.38
2022-08-10T07:56:07.607Z,102878.72
2022-08-10T07:58:51.753Z,102871.81
2022-08-10T08:01:29.594Z,102872.28
2022-08-10T08:04:11.044Z,102863.81
2022-08-10T08:06:45.914Z,102857.75
2022-08-10T08:09:20.719Z,102864.53
2022-08-10T08:11:54.723Z,102860.78
2022-08-10T08:14:27.709Z,102865.66
2022-08-10T08:17:02.626Z,102856.56
2022-08-10T08:19:45.759Z,102854.69
2022-08-10T08:24:06.194Z,102845.69
2022-08-10T08:25:14.641Z,102845.38
2022-08-10T08:27:52.781Z,102843.38
2022-08-10T08:30:27.771Z,102839.13
2022-08-10T08:33:01.262Z,102847.41
2022-08-10T08:35:34.568Z,102846.03
2022-08-10T08:38:33.407Z,102846.66
2022-08-10T08:41:15.355Z,102844.13
2022-08-10T08:44:17.414Z,102847.84
2022-08-10T08:48:01.000Z,102839.19
2022-08-10T08:50:23.884Z,102832.63
2022-08-10T08:54:01.218Z,102837.63
2022-08-10T08:56:50.112Z,102836.91
2022-08-10T08:59:59.717Z,102837.00
2022-08-10T09:03:09.178Z,102841.06
2022-08-10T09:05:58.651Z,102837.72
2022-08-10T09:08:53.895Z,102841.13
2022-08-10T09:12:02.770Z,102840.75
2022-08-10T09:14:42.003Z,102840.66
2022-08-10T09:17:46.156Z,102843.38
2022-08-10T09:20:37.544Z,102835.56
2022-08-10T09:24:04.759Z,102835.13
2022-08-10T09:26:51.774Z,102832.81
2022-08-10T09:29:31.283Z,102832.59
2022-08-10T09:36:13.815Z,102833.81
2022-08-10T09:36:28.042Z,102836.53
2022-08-10T09:38:38.117Z,102836.25
2022-08-10T09:41:40.064Z,102822.75
2022-08-10T09:44:58.045Z,102816.78
2022-08-10T09:48:02.455Z,102821.50
2022-08-10T09:54:35.474Z,102818.72
2022-08-10T09:57:48.341Z,102821.00
2022-08-10T10:00:23.950Z,102812.72
2022-08-10T10:03:17.765Z,102813.00
2022-08-10T10:06:19.093Z,102809.03
2022-08-10T10:09:35.136Z,102803.03
2022-08-10T10:12:37.200Z,102793.97
2022-08-10T10:15:24.139Z,102794.63
2022-08-10T10:18:03.432Z,102801.47
2022-08-10T10:21:00.074Z,102796.13
2022-08-10T10:24:15.565Z,102787.56
2022-08-10T10:27:02.592Z,102787.09
2022-08-10T10:29:57.242Z,102787.34
2022-08-10T10:32:57.691Z,102780.69
2022-08-10T10:35:44.577Z,102779.72
2022-08-10T10:38:19.061Z,102776.19
2022-08-10T10:42:03.729Z,102790.16
2022-08-10T10:44:50.345Z,102776.50
2022-08-10T10:47:46.741Z,102770.09
2022-08-10T10:50:31.598Z,102766.63
2022-08-10T10:53:19.169Z,102761.66
2022-08-10T10:56:43.723Z,102768.97
2022-08-10T10:59:57.774Z,102755.78
2022-08-10T11:03:01.637Z,102762.22
2022-08-10T11:05:43.437Z,102754.78
2022-08-10T11:08:30.738Z,102743.28
2022-08-10T11:11:25.355Z,102740.78
2022-08-10T11:14:24.650Z,102747.81
2022-08-10T11:17:12.055Z,102740.38
2022-08-10T11:20:26.321Z,102735.97
2022-08-10T11:23:31.855Z,102749.13
2022-08-10T11:26:25.211Z,102739.75
2022-08-10T11:29:43.913Z,102735.59
2022-08-10T11:32:37.706Z,102733.41
2022-08-10T11:35:34.822Z,102734.25
2022-08-10T11:39:11.098Z,102726.06
2022-08-10T11:42:09.072Z,102726.09
2022-08-10T11:45:00.454Z,102716.63
2022-08-10T11:47:41.472Z,102714.81
2022-08-10T11:50:37.054Z,102714.81
2022-08-10T11:53:24.696Z,102716.88
2022-08-10T11:55:59.860Z,102713.75
2022-08-10T11:59:00.443Z,102715.31
2022-08-10T12:01:34.247Z,102710.84
2022-08-10T12:04:11.890Z,102710.66
2022-08-10T12:06:55.691Z,102721.84
2022-08-10T12:10:09.738Z,102712.38
2022-08-10T12:12:23.686Z,102708.06
2022-08-10T12:15:15.717Z,102706.72
2022-08-10T12:17:54.805Z,102711.53
2022-08-10T12:20:35.095Z,102708.09
2022-08-10T12:23:24.474Z,102703.78
2022-08-10T12:26:21.150Z,102701.38
2022-08-10T12:29:15.246Z,102692.41
2022-08-10T12:32:27.688Z,102680.25
2022-08-10T12:35:26.079Z,102676.91
2022-08-10T12:38:35.064Z,102672.75
2022-08-10T12:41:43.522Z,102673.78
2022-08-10T12:44:43.311Z,102672.31
2022-08-10T12:47:50.556Z,102660.16
2022-08-10T12:50:59.834Z,102665.31
2022-08-10T12:53:56.723Z,102654.63
2022-08-10T12:56:36.844Z,102657.03
2022-08-10T12:59:14.040Z,102650.78
2022-08-10T13:02:09.557Z,102647.50
2022-08-10T13:04:44.304Z,102651.13
2022-08-10T13:08:03.837Z,102650.19
2022-08-10T13:10:25.351Z,102650.19
2022-08-10T13:12:59.548Z,102637.00
2022-08-10T13:15:49.398Z,102637.84
2022-08-10T13:18:29.841Z,102627.03
2022-08-10T13:21:20.598Z,102627.63
2022-08-10T13:24:15.135Z,102618.78
2022-08-10T13:27:26.243Z,102627.31
2022-08-10T13:30:06.968Z,102616.88
2022-08-10T13:32:51.116Z,102617.44
2022-08-10T13:35:25.828Z,102620.69
2022-08-10T13:37:59.409Z,102615.41
2022-08-10T13:40:33.402Z,102607.28
2022-08-10T13:43:08.325Z,102605.72
2022-08-10T13:45:46.410Z,102604.41
2022-08-10T13:48:24.205Z,102591.06
2022-08-10T13:50:59.307Z,102595.44
2022-08-10T13:53:33.421Z,102595.25
2022-08-10T13:56:10.887Z,102595.56
2022-08-10T13:58:43.536Z,102597.47
2022-08-10T14:01:22.759Z,102595.19
2022-08-10T14:03:55.908Z,102598.84
2022-08-10T14:06:30.084Z,102595.69
2022-08-10T14:09:10.332Z,102595.25
2022-08-10T14:11:44.055Z,102584.56
2022-08-10T14:14:18.912Z,102581.00
2022-08-10T14:16:51.905Z,102590.78
2022-08-10T14:19:28.860Z,102586.41
2022-08-10T14:22:01.993Z,102574.94
2022-08-10T14:24:34.328Z,102588.50
2022-08-10T14:27:10.522Z,102586.41
2022-08-10T14:30:10.000Z,102583.97
2022-08-10T14:32:44.626Z,102573.75
2022-08-10T14:36:20.991Z,102570.63
2022-08-10T14:38:19.703Z,102554.44
2022-08-10T14:40:55.426Z,102567.53
2022-08-10T14:43:40.847Z,102563.03
2022-08-10T14:46:20.251Z,102564.97
2022-08-10T14:48:55.891Z,102556.94
2022-08-10T14:51:44.422Z,102552.00
2022-08-10T14:54:18.037Z,102552.28
2022-08-10T14:56:50.958Z,102553.28
2022-08-10T14:59:45.883Z,102551.50
2022-08-10T15:02:40.086Z,102549.13
2022-08-10T15:05:17.502Z,102550.84
2022-08-10T15:07:58.763Z,102546.59
2022-08-10T15:10:32.427Z,102543.03
2022-08-10T15:13:34.246Z,102540.22
2022-08-10T15:16:13.898Z,102539.75
2022-08-10T15:18:58.593Z,102540.63
2022-08-10T15:21:43.505Z,102539.19
2022-08-10T15:24:38.286Z,102538.13
2022-08-10T15:27:11.365Z,102532.16
2022-08-10T15:29:44.797Z,102534.88
2022-08-10T15:34:01.932Z,102529.56
2022-08-10T15:36:39.498Z,102521.47
2022-08-10T15:40:24.116Z,102524.03
2022-08-10T15:42:20.816Z,102521.84
2022-08-10T15:44:55.007Z,102512.50
2022-08-10T15:47:45.877Z,102516.56
2022-08-10T15:50:40.192Z,102524.47
2022-08-10T15:53:49.412Z,102517.81
2022-08-10T15:56:34.940Z,102516.19
2022-08-10T15:59:15.532Z,102517.16
2022-08-10T16:02:14.048Z,102521.19
2022-08-10T16:05:11.908Z,102520.22
2022-08-10T16:08:00.529Z,102513.19
2022-08-10T16:10:53.585Z,102516.16
2022-08-10T16:13:50.554Z,102511.41
2022-08-10T16:16:31.547Z,102515.22
2022-08-10T16:19:22.423Z,102511.84
2022-08-10T16:22:02.217Z,102514.72
2022-08-10T16:24:38.080Z,102515.69
2022-08-10T16:27:11.126Z,102519.81
2022-08-10T16:29:56.084Z,102510.88
2022-08-10T16:32:32.165Z,102502.19
2022-08-10T16:35:09.137Z,102509.41
2022-08-10T16:37:56.647Z,102505.84
2022-08-10T16:40:32.955Z,102498.13
2022-08-10T16:43:09.228Z,102506.44
2022-08-10T16:45:48.106Z,102505.56
2022-08-10T16:48:48.446Z,102502.53
2022-08-10T16:51:22.770Z,102488.09
2022-08-10T16:53:59.177Z,102488.38
2022-08-10T16:56:48.623Z,102486.72
2022-08-10T16:59:24.442Z,102478.13
2022-08-10T17:01:58.917Z,102487.59
2022-08-10T17:04:34.365Z,102481.06
2022-08-10T17:07:14.415Z,102481.84
2022-08-10T17:09:50.948Z,102477.25
2022-08-10T17:12:30.351Z,102475.44
2022-08-10T17:15:10.278Z,102470.47
2022-08-10T17:17:49.115Z,102476.28
2022-08-10T17:20:32.976Z,102473.81
2022-08-10T17:23:10.664Z,102468.63
2022-08-10T17:25:46.063Z,102467.06
2022-08-10T17:28:34.914Z,102463.13
2022-08-10T17:31:23.835Z,102468.69
2022-08-10T17:34:12.369Z,102459.78
2022-08-10T17:36:49.952Z,102463.78
2022-08-10T17:39:29.147Z,102452.41
2022-08-10T17:42:04.484Z,102459.94
2022-08-10T17:44:39.113Z,102456.63
2022-08-10T17:47:12.505Z,102464.38
2022-08-10T17:49:45.716Z,102455.75
2022-08-10T17:52:23.968Z,102459.56
2022-08-10T17:55:01.736Z,102461.59
2022-08-10T17:57:39.491Z,102460.28
2022-08-10T18:00:14.586Z,102460.63
2022-08-10T18:02:49.378Z,102456.69
2022-08-10T18:05:21.605Z,102459.53
2022-08-10T18:07:56.355Z,102460.88
2022-08-10T18:10:29.160Z,102469.00
2022-08-10T18:13:01.906Z,102465.84
2022-08-10T18:15:38.165Z,102465.31
2022-08-10T18:18:17.347Z,102469.25
2022-08-10T18:21:02.365Z,102470.50
2022-08-10T18:23:38.469Z,102478.06
2022-08-10T18:26:15.230Z,102470.38
2022-08-10T18:28:53.214Z,102467.19
2022-08-10T18:31:26.425Z,102470.88
2022-08-10T18:33:59.455Z,102468.50
2022-08-10T18:36:38.821Z,102476.91
2022-08-10T18:39:13.294Z,102472.03
2022-08-10T18:42:00.720Z,102466.00
2022-08-10T18:44:55.454Z,102468.97
2022-08-10T18:47:39.918Z,102471.88
2022-08-10T18:50:49.698Z,102482.00
2022-08-10T18:53:48.605Z,102481.31
2022-08-10T18:56:40.547Z,102478.84
2022-08-10T19:00:03.881Z,102481.94
2022-08-10T19:03:53.503Z,102487.72
2022-08-10T19:07:02.040Z,102488.97
2022-08-10T19:09:48.321Z,102497.28
2022-08-10T19:12:50.461Z,102491.50
2022-08-10T19:15:42.649Z,102497.22
2022-08-10T19:18:34.449Z,102502.78
2022-08-10T19:21:33.174Z,102499.63
2022-08-10T19:24:15.199Z,102498.16
2022-08-10T19:26:59.596Z,102505.50
2022-08-10T19:30:11.027Z,102503.09
2022-08-10T19:33:10.099Z,102508.66
2022-08-10T19:36:04.395Z,102500.94
2022-08-10T19:38:50.634Z,102498.78
2022-08-10T19:41:44.408Z,102504.31
2022-08-10T19:44:31.272Z,102501.97
2022-08-10T19:47:12.629Z,102495.00
2022-08-10T19:50:04.557Z,102504.13
2022-08-10T19:53:02.215Z,102498.03
2022-08-10T19:56:18.469Z,102497.41
2022-08-10T19:59:13.040Z,102498.47
2022-08-10T20:01:55.177Z,102505.72
2022-08-10T20:04:34.079Z,102507.66
2022-08-10T20:07:51.475Z,102510.47
2022-08-10T20:10:54.784Z,102508.91
2022-08-10T20:13:41.997Z,102502.75
2022-08-10T20:16:22.365Z,102504.66
2022-08-10T20:19:10.655Z,102507.50
2022-08-10T20:21:53.071Z,102508.59
2022-08-10T20:24:49.638Z,102505.16
2022-08-10T20:27:58.889Z,102517.00
2022-08-10T20:30:31.736Z,102519.94
2022-08-10T20:33:12.413Z,102524.69
2022-08-10T20:35:49.351Z,102524.00
2022-08-10T20:38:32.872Z,102526.06
2022-08-10T20:41:46.545Z,102528.19
2022-08-10T20:45:11.482Z,102529.59
2022-08-10T20:48:22.365Z,102533.59
2022-08-10T20:50:59.449Z,102530.41
2022-08-10T20:53:45.428Z,102532.34
2022-08-10T20:56:25.215Z,102530.91
2022-08-10T21:00:04.527Z,102534.84
2022-08-10T21:03:25.150Z,102525.56
2022-08-10T21:06:52.996Z,102520.50
2022-08-10T21:09:58.874Z,102514.53
2022-08-10T21:13:06.543Z,102525.44
2022-08-10T21:16:49.734Z,102525.06
2022-08-10T21:19:53.638Z,102523.56
2022-08-10T21:22:47.751Z,102526.47
2022-08-10T21:25:35.884Z,102524.75
2022-08-10T21:28:35.453Z,102523.16
2022-08-10T21:31:30.957Z,102522.50
2022-08-10T21:34:54.269Z,102521.75
2022-08-10T21:37:57.141Z,102521.88
2022-08-10T21:41:18.373Z,102516.63
2022-08-10T21:44:20.670Z,102516.69
2022-08-10T21:48:16.647Z,102516.06
2022-08-10T21:52:01.519Z,102518.09
2022-08-10T21:55:11.918Z,102511.31
2022-08-10T21:58:30.601Z,102518.59
2022-08-10T22:01:39.329Z,102516.94
2022-08-10T22:04:32.106Z,102521.69
2022-08-10T22:07:24.437Z,102515.56
2022-08-10T22:10:17.552Z,102505.75
2022-08-10T22:13:11.249Z,102510.16
2022-08-10T22:16:14.006Z,102513.69
2022-08-10T22:19:14.803Z,102515.41
2022-08-10T22:22:27.003Z,102509.16
2022-08-10T22:25:36.597Z,102507.41
2022-08-10T22:28:33.787Z,102503.06
2022-08-10T22:31:36.615Z,102501.31
2022-08-10T22:34:52.977Z,102503.22
2022-08-10T22:38:11.737Z,102503.34
2022-08-10T22:41:04.976Z,102503.59
2022-08-10T22:43:56.962Z,102516.97
2022-08-10T22:46:51.355Z,102497.47
2022-08-10T22:49:24.407Z,102509.94
2022-08-10T22:52:08.838Z,102504.59
2022-08-10T22:55:32.048Z,102504.66
2022-08-10T22:58:22.941Z,102508.25
2022-08-10T23:01:42.151Z,102498.53
2022-08-10T23:04:36.231Z,102495.91
2022-08-10T23:07:17.651Z,102497.66
2022-08-10T23:10:09.460Z,102496.78
2022-08-10T23:12:48.113Z,102494.03
2022-08-10T23:15:54.374Z,102506.41
2022-08-10T23:18:56.956Z,102502.06
2022-08-10T23:22:02.851Z,102499.41
2022-08-10T23:24:43.595Z,102496.84
2022-08-10T23:27:38.999Z,102495.19
2022-08-10T23:30:17.065Z,102489.97
2022-08-10T23:32:59.375Z,102487.41
2022-08-10T23:36:30.534Z,102488.38
2022-08-10T23:38:53.303Z,102484.00
2022-08-10T23:41:31.733Z,102483.22
2022-08-10T23:44:04.785Z,102486.75
2022-08-10T23:46:41.810Z,102484.97
2022-08-10T23:49:14.445Z,102497.31
2022-08-10T23:51:56.287Z,102478.75
2022-08-10T23:54:30.014Z,102482.31
2022-08-10T23:57:02.938Z,102480.59
2022-08-10T23:59:35.812Z,102480.63
